ENAL/AES METAR and TAF weather

Enter ICAO airport designator
Station Type Date Time Source
ENAL METAR 2018/07/21 12:50 UTC NOAA

ENAL 211250Z 32006KT 9999 FEW040 18/10 Q1010


Station Type Date Time Source
ENAL Decoded METAR 2018/07/21 12:50 UTC NOAA

Alesund / Vigra, Norway (ENAL) 62-34N 006-07E 22M
Jul 21, 2018 - 08:50 AM EDT / 2018.07.21 1250 UTC
Wind: from the NW (320 degrees) at 7 MPH (6 KT):0
Visibility: greater than 7 mile(s):0
Sky conditions: mostly clear
Temperature: 64 F (18 C)
Dew Point: 50 F (10 C)
Relative Humidity: 59%
Pressure (altimeter): 29.83 in. Hg (1010 hPa)
ob: ENAL 211250Z 32006KT 9999 FEW040 18/10 Q1010
cycle: 13

Station Type Date Time Source
ENAL TAF UTC NOAA

Error!


Example: see airport list